Time;durP1;ratioP1;P1;durP2;ratioP2;P2;SDS_P1;SDS_P2;PMS_P1;PMS_P2;Temp;Humidity;BMP_temperature;BMP_pressure;BME280_temperature;BME280_humidity;BME280_pressure;Samples;Min_cycle;Max_cycle;Signal;HPM_P1;HPM_P2
2022/11/25 00:02:32;;;;;;;11.22;7.20;;;7.90;99.90;;;;;;1892040;75;21067;-87
2022/11/25 00:05:27;;;;;;;10.75;7.42;;;7.90;99.90;;;;;;1892457;75;21107;-87
2022/11/25 00:08:18;;;;;;;11.03;7.75;;;7.90;99.90;;;;;;1888897;75;21585;-87
2022/11/25 00:11:10;;;;;;;14.10;7.33;;;7.90;99.90;;;;;;1879948;75;21165;-87
2022/11/25 00:14:01;;;;;;;11.45;7.58;;;7.90;99.90;;;;;;1885572;75;21099;-88
2022/11/25 00:16:53;;;;;;;10.40;6.65;;;7.90;99.90;;;;;;1892887;75;21101;-86
2022/11/25 00:19:47;;;;;;;11.25;7.00;;;8.00;99.90;;;;;;1883816;75;21111;-87
2022/11/25 00:22:38;;;;;;;12.47;7.55;;;8.10;99.90;;;;;;1868559;75;21110;-87
2022/11/25 00:25:29;;;;;;;10.70;7.47;;;8.00;99.90;;;;;;1877723;75;21111;-87
2022/11/25 00:28:22;;;;;;;10.90;7.17;;;8.00;99.90;;;;;;1877253;75;21224;-87
2022/11/25 00:31:15;;;;;;;11.33;7.03;;;8.00;99.90;;;;;;1886001;75;21092;-87
2022/11/25 00:34:10;;;;;;;13.58;7.30;;;8.00;99.90;;;;;;1884302;75;21046;-86
2022/11/25 00:37:01;;;;;;;11.53;6.05;;;8.00;99.90;;;;;;1884051;75;21129;-86
2022/11/25 00:45:46;;;;;;;10.70;6.80;;;7.90;99.90;;;;;;1893272;75;21153;-88
2022/11/25 00:48:37;;;;;;;9.75;6.37;;;7.90;99.90;;;;;;1895927;75;21063;-88
2022/11/25 00:51:29;;;;;;;9.93;6.15;;;7.90;99.90;;;;;;1872984;75;21167;-87
2022/11/25 00:54:21;;;;;;;13.03;7.05;;;7.90;99.90;;;;;;1872495;75;21095;-88
2022/11/25 00:57:12;;;;;;;10.10;6.42;;;7.90;99.90;;;;;;1884811;75;21158;-87
2022/11/25 01:02:49;;;;;;;10.10;7.28;;;8.00;99.90;;;;;;1910850;72;28083;-85
2022/11/25 01:05:41;;;;;;;9.60;6.53;;;8.10;99.90;;;;;;1894936;75;21118;-88
2022/11/25 01:08:33;;;;;;;10.00;6.12;;;8.20;99.90;;;;;;1900247;75;21050;-87
2022/11/25 01:11:25;;;;;;;10.78;6.80;;;8.20;99.90;;;;;;1873504;75;21597;-87
2022/11/25 01:16:56;;;;;;;8.85;6.42;;;8.10;99.90;;;;;;1966619;72;22216;-88
2022/11/25 01:19:49;;;;;;;10.08;6.25;;;8.10;99.90;;;;;;1929417;73;21613;-88
2022/11/25 01:22:42;;;;;;;9.38;5.80;;;8.10;99.90;;;;;;1924190;73;21035;-87
2022/11/25 01:28:13;;;;;;;8.65;5.78;;;8.00;99.90;;;;;;1952197;72;22311;-88
2022/11/25 01:31:08;;;;;;;7.35;5.62;;;8.00;99.90;;;;;;1872652;75;21103;-87
2022/11/25 01:34:02;;;;;;;10.32;5.75;;;8.00;99.90;;;;;;1886530;75;21139;-87
2022/11/25 01:39:35;;;;;;;11.03;5.58;;;8.00;99.90;;;;;;1952465;72;22181;-88
2022/11/25 01:42:31;;;;;;;13.15;5.83;;;8.10;99.90;;;;;;1910747;74;21156;-88
2022/11/25 01:48:36;;;;;;;7.55;5.53;;;8.20;99.90;;;;;;1946288;72;22365;-87
2022/11/25 01:54:10;;;;;;;8.30;5.22;;;8.20;99.90;;;;;;1928677;72;22209;-87
2022/11/25 02:02:24;;;;;;;11.93;6.22;;;8.20;99.90;;;;;;1963737;72;22101;-88
2022/11/25 02:08:02;;;;;;;8.83;5.17;;;8.30;99.90;;;;;;1950466;72;22225;-88
2022/11/25 02:13:37;;;;;;;8.58;5.92;;;8.20;99.90;;;;;;1940781;72;22244;-87
2022/11/25 02:16:29;;;;;;;8.03;5.58;;;8.20;99.90;;;;;;1894210;75;21191;-87
2022/11/25 02:22:04;;;;;;;8.93;5.75;;;8.20;99.90;;;;;;1949636;72;22249;-87
2022/11/25 02:27:39;;;;;;;10.08;5.78;;;8.20;99.90;;;;;;1919552;72;22207;-88
2022/11/25 02:30:31;;;;;;;9.18;6.12;;;8.20;99.90;;;;;;1916813;75;21217;-88
2022/11/25 02:33:23;;;;;;;9.35;6.05;;;8.20;99.90;;;;;;1917303;74;21063;-87
2022/11/25 02:36:18;;;;;;;11.05;6.20;;;8.20;99.90;;;;;;1917011;75;21159;-86
2022/11/25 02:39:10;;;;;;;7.78;5.65;;;8.20;99.90;;;;;;1902132;75;21130;-88
2022/11/25 02:42:01;;;;;;;9.13;6.28;;;8.20;99.90;;;;;;1843095;77;21165;-87
2022/11/25 02:44:53;;;;;;;9.03;5.97;;;8.20;99.90;;;;;;1903454;75;21065;-88
2022/11/25 02:47:46;;;;;;;9.73;6.58;;;8.20;99.90;;;;;;1890924;75;21132;-87
2022/11/25 02:50:38;;;;;;;8.35;5.72;;;8.20;99.90;;;;;;1913624;75;21055;-86
2022/11/25 02:53:30;;;;;;;7.47;4.87;;;8.20;99.90;;;;;;1890640;75;21085;-88
2022/11/25 02:56:24;;;;;;;8.98;5.45;;;8.20;99.90;;;;;;1915787;74;21102;-87
2022/11/25 03:01:57;;;;;;;8.13;5.15;;;8.20;99.90;;;;;;1932411;72;22197;-88
2022/11/25 03:07:38;;;;;;;9.05;5.08;;;8.20;99.90;;;;;;1929175;72;22190;-88
2022/11/25 03:10:30;;;;;;;7.75;5.10;;;8.20;99.90;;;;;;1897103;75;21149;-87
2022/11/25 03:13:22;;;;;;;9.43;5.62;;;8.30;99.90;;;;;;1879847;75;21147;-86
2022/11/25 03:16:14;;;;;;;7.83;4.95;;;8.30;99.90;;;;;;1877104;75;21660;-88
2022/11/25 03:19:07;;;;;;;9.15;5.30;;;8.20;99.90;;;;;;1897809;75;21242;-89
2022/11/25 03:21:58;;;;;;;9.05;5.78;;;8.20;99.90;;;;;;1892255;75;21131;-87
2022/11/25 03:24:50;;;;;;;8.28;5.60;;;8.20;99.90;;;;;;1878743;75;21154;-87
2022/11/25 03:27:43;;;;;;;9.88;6.00;;;8.10;99.90;;;;;;1888388;75;21098;-87
2022/11/25 03:30:35;;;;;;;10.80;5.72;;;8.00;99.90;;;;;;1904662;75;21143;-87
2022/11/25 03:33:26;;;;;;;7.70;5.40;;;8.00;99.90;;;;;;1877089;75;21172;-86
2022/11/25 03:36:19;;;;;;;9.75;5.58;;;8.00;99.90;;;;;;1877455;75;21066;-87
2022/11/25 03:39:11;;;;;;;8.70;5.72;;;7.90;99.90;;;;;;1890265;75;21167;-87
2022/11/25 03:42:02;;;;;;;9.95;6.50;;;7.90;99.90;;;;;;1874493;75;21129;-87
2022/11/25 03:47:37;;;;;;;10.68;6.15;;;7.80;99.90;;;;;;1939166;72;22240;-88
2022/11/25 03:53:13;;;;;;;8.13;5.40;;;7.60;99.90;;;;;;1938368;72;20475;-87
2022/11/25 03:56:07;;;;;;;10.35;5.17;;;7.60;99.90;;;;;;1893489;75;21095;-86
2022/11/25 03:58:58;;;;;;;10.10;5.35;;;7.50;99.90;;;;;;1874683;75;21170;-87
2022/11/25 04:04:30;;;;;;;8.85;5.70;;;7.50;99.90;;;;;;1916225;72;22201;-88
2022/11/25 04:07:22;;;;;;;7.97;5.20;;;7.50;99.90;;;;;;1879613;74;21185;-87
2022/11/25 04:10:15;;;;;;;7.03;5.05;;;7.50;99.90;;;;;;1915776;74;21160;-86
2022/11/25 04:13:07;;;;;;;8.23;5.17;;;7.50;99.90;;;;;;1900371;74;21561;-86
2022/11/25 04:16:00;;;;;;;7.72;4.72;;;7.40;99.90;;;;;;1904546;74;21172;-88
2022/11/25 04:18:52;;;;;;;7.42;4.50;;;7.50;99.90;;;;;;1890126;74;21161;-87
2022/11/25 04:21:43;;;;;;;6.83;4.50;;;7.40;99.90;;;;;;1883534;75;21173;-86
2022/11/25 04:24:36;;;;;;;7.28;4.15;;;7.40;99.90;;;;;;1892965;75;21551;-86
2022/11/25 04:27:28;;;;;;;7.33;4.53;;;7.40;99.90;;;;;;1867709;75;21183;-86
2022/11/25 04:30:20;;;;;;;5.45;3.37;;;7.30;99.90;;;;;;1913102;74;21102;-86
2022/11/25 04:33:15;;;;;;;3.17;2.55;;;7.20;99.90;;;;;;1916919;74;21147;-86
2022/11/25 04:36:08;;;;;;;7.05;3.22;;;7.00;99.90;;;;;;1893421;75;21174;-86
2022/11/25 04:42:30;;;;;;;4.03;2.65;;;6.90;99.90;;;;;;1940723;72;22158;-88
2022/11/25 04:44:49;;;;;;;5.00;3.15;;;6.90;99.90;;;;;;1904817;75;21456;-86
2022/11/25 04:47:43;;;;;;;7.12;3.95;;;6.90;99.90;;;;;;1905468;74;21118;-86
2022/11/25 04:50:34;;;;;;;9.00;4.45;;;7.00;99.90;;;;;;1913316;74;21090;-86
2022/11/25 04:53:28;;;;;;;7.10;4.58;;;7.00;99.90;;;;;;1907595;74;21138;-86
2022/11/25 04:56:20;;;;;;;6.45;4.60;;;7.00;99.90;;;;;;1913359;74;21177;-87
2022/11/25 05:02:25;;;;;;;6.92;3.85;;;7.10;99.90;;;;;;1915137;74;21110;-86
2022/11/25 05:05:25;;;;;;;5.35;3.22;;;7.20;99.90;;;;;;1913590;74;21141;-86
2022/11/25 05:08:17;;;;;;;6.25;3.55;;;7.30;99.90;;;;;;1918043;74;21159;-86
2022/11/25 05:13:54;;;;;;;7.42;4.55;;;7.20;99.90;;;;;;1947050;72;22645;-87
2022/11/25 05:16:46;;;;;;;7.55;4.25;;;7.10;99.90;;;;;;1925074;73;21070;-87
2022/11/25 05:19:39;;;;;;;7.62;5.00;;;7.00;99.90;;;;;;1917012;75;21172;-87
2022/11/25 05:22:32;;;;;;;7.25;5.08;;;7.00;99.90;;;;;;1923769;73;21087;-88
2022/11/25 05:25:25;;;;;;;7.47;4.87;;;7.00;99.90;;;;;;1917204;73;21098;-88
2022/11/25 05:28:24;;;;;;;7.97;5.10;;;7.00;99.90;;;;;;1916749;75;21077;-87
2022/11/25 05:31:16;;;;;;;7.20;4.65;;;6.90;99.90;;;;;;1921729;73;21109;-87
2022/11/25 05:34:07;;;;;;;9.00;5.15;;;7.00;99.90;;;;;;1916030;73;21637;-87
2022/11/25 05:36:59;;;;;;;7.40;4.50;;;6.90;99.90;;;;;;1917113;75;21146;-86
2022/11/25 05:39:52;;;;;;;6.97;4.95;;;6.80;99.90;;;;;;1920519;73;21114;-86
2022/11/25 05:43:03;;;;;;;7.40;4.65;;;6.80;99.90;;;;;;1936835;73;21164;-87
2022/11/25 05:45:56;;;;;;;7.95;4.72;;;6.70;99.90;;;;;;1915342;74;21159;-87
2022/11/25 05:48:50;;;;;;;8.68;5.33;;;6.70;99.90;;;;;;1916762;75;21101;-87
2022/11/25 05:51:42;;;;;;;8.30;5.15;;;6.60;99.90;;;;;;1924106;73;21098;-87
2022/11/25 05:57:14;;;;;;;8.30;5.22;;;6.60;99.90;;;;;;1942313;72;22214;-88
2022/11/25 06:00:09;;;;;;;12.00;6.33;;;6.60;99.90;;;;;;1920311;74;21169;-87
2022/11/25 06:03:08;;;;;;;8.83;5.95;;;6.60;99.90;;;;;;1905041;75;21070;-88
2022/11/25 06:06:01;;;;;;;8.55;5.80;;;6.50;99.90;;;;;;1929013;74;21137;-87
2022/11/25 06:08:53;;;;;;;9.45;6.40;;;6.40;99.90;;;;;;1922842;74;21075;-87
2022/11/25 06:11:46;;;;;;;13.15;6.22;;;6.40;99.90;;;;;;1918890;74;21163;-86
2022/11/25 06:17:17;;;;;;;10.32;6.17;;;6.40;99.90;;;;;;1947306;72;22174;-88
2022/11/25 06:20:11;;;;;;;7.83;6.20;;;6.40;99.90;;;;;;1910353;74;21142;-86
2022/11/25 06:23:03;;;;;;;13.08;6.00;;;6.30;99.90;;;;;;1904607;74;21102;-87
2022/11/25 06:25:55;;;;;;;7.95;5.62;;;6.20;99.90;;;;;;1904667;75;21091;-86
2022/11/25 06:28:47;;;;;;;8.85;5.80;;;6.30;99.90;;;;;;1915179;74;21094;-86
2022/11/25 06:31:39;;;;;;;8.58;5.00;;;6.30;99.90;;;;;;1911610;74;21572;-86
2022/11/25 06:34:49;;;;;;;6.80;5.10;;;6.30;99.90;;;;;;1917249;74;21072;-87
2022/11/25 06:37:51;;;;;;;8.55;4.87;;;6.30;99.90;;;;;;1882381;75;21091;-87
2022/11/25 06:40:43;;;;;;;9.00;4.85;;;6.20;99.90;;;;;;1907369;74;21197;-88
2022/11/25 06:43:35;;;;;;;8.35;5.53;;;6.30;99.90;;;;;;1904579;74;21140;-88
2022/11/25 06:46:26;;;;;;;9.33;4.97;;;6.30;99.90;;;;;;1882342;75;21099;-87
2022/11/25 06:51:58;;;;;;;8.75;4.97;;;6.20;99.90;;;;;;1927359;72;22315;-87
2022/11/25 06:57:29;;;;;;;8.13;5.28;;;6.20;99.90;;;;;;1945589;72;22227;-88
2022/11/25 07:03:05;;;;;;;7.28;4.53;;;6.30;99.90;;;;;;1941219;72;22269;-87
2022/11/25 07:06:06;;;;;;;9.48;5.25;;;6.40;99.90;;;;;;1899217;75;21085;-88
2022/11/25 07:08:58;;;;;;;6.40;4.28;;;6.40;99.90;;;;;;1912006;75;21549;-88
2022/11/25 07:11:52;;;;;;;7.50;4.95;;;6.40;99.90;;;;;;1904386;75;21168;-87
2022/11/25 07:17:25;;;;;;;9.43;5.10;;;6.50;99.90;;;;;;1931330;72;22257;-88
2022/11/25 07:20:17;;;;;;;8.38;4.58;;;6.50;99.90;;;;;;1908822;74;21082;-86
2022/11/25 07:23:10;;;;;;;7.08;4.35;;;6.50;99.90;;;;;;1901625;75;21156;-88
2022/11/25 07:26:06;;;;;;;7.12;4.15;;;6.50;99.90;;;;;;1884102;75;21093;-86
2022/11/25 07:29:01;;;;;;;7.28;4.08;;;6.50;99.90;;;;;;1890534;75;21121;-87
2022/11/25 07:31:53;;;;;;;7.08;4.30;;;6.60;99.90;;;;;;1909837;75;21078;-88
2022/11/25 07:37:26;;;;;;;9.35;4.72;;;6.70;99.90;;;;;;1957008;72;22184;-87
2022/11/25 07:42:57;;;;;;;9.98;5.58;;;6.70;99.90;;;;;;1965315;72;22692;-87
2022/11/25 07:48:29;;;;;;;9.85;6.83;;;6.80;99.90;;;;;;1936083;72;22750;-87
2022/11/25 07:51:23;;;;;;;9.38;5.75;;;6.80;99.90;;;;;;1885177;75;21148;-87
2022/11/25 07:54:15;;;;;;;10.32;6.05;;;6.80;99.90;;;;;;1883111;75;21193;-86
2022/11/25 07:57:06;;;;;;;9.93;6.62;;;6.80;99.90;;;;;;1880936;75;21600;-87
2022/11/25 08:02:51;;;;;;;7.28;5.05;;;6.90;99.90;;;;;;1962287;72;22318;-87
2022/11/25 08:05:43;;;;;;;7.87;5.40;;;6.90;99.90;;;;;;1904829;74;21071;-87
2022/11/25 08:11:15;;;;;;;7.50;4.95;;;7.00;99.90;;;;;;1937363;72;22255;-88
2022/11/25 08:14:07;;;;;;;9.43;5.28;;;7.10;99.90;;;;;;1878694;75;21196;-87
2022/11/25 08:16:58;;;;;;;8.58;4.58;;;7.10;99.90;;;;;;1888194;75;21106;-87
2022/11/25 08:19:50;;;;;;;9.85;5.15;;;7.10;99.90;;;;;;1897190;75;21085;-87
2022/11/25 08:22:41;;;;;;;9.38;4.75;;;7.20;99.90;;;;;;1890692;75;21130;-88
2022/11/25 08:25:56;;;;;;;8.95;4.72;;;7.30;99.90;;;;;;1879773;75;21187;-86
2022/11/25 08:32:23;;;;;;;9.15;5.10;;;7.50;99.90;;;;;;1950630;71;22242;-88
2022/11/25 08:35:18;;;;;;;8.08;4.85;;;7.70;99.90;;;;;;1939170;73;21140;-86
2022/11/25 08:38:12;;;;;;;8.20;5.08;;;7.80;99.90;;;;;;1933525;73;21147;-86
2022/11/25 08:41:11;;;;;;;10.40;5.15;;;8.00;99.90;;;;;;1922770;72;21118;-86
2022/11/25 08:46:47;;;;;;;10.20;5.12;;;8.20;99.90;;;;;;1940290;72;22122;-87
2022/11/25 08:49:39;;;;;;;8.58;4.80;;;8.30;99.90;;;;;;1896888;75;21154;-86
2022/11/25 08:52:32;;;;;;;13.20;5.65;;;8.50;99.90;;;;;;1900921;75;21192;-86
2022/11/25 08:58:02;;;;;;;9.35;4.58;;;8.70;99.90;;;;;;1971578;72;22181;-88
2022/11/25 09:00:55;;;;;;;9.28;4.40;;;8.90;99.90;;;;;;1923517;73;21193;-86
2022/11/25 09:03:48;;;;;;;7.00;3.75;;;9.00;99.90;;;;;;1916896;75;21155;-87
2022/11/25 09:09:21;;;;;;;6.75;3.85;;;9.20;99.90;;;;;;1942999;72;22293;-87
2022/11/25 09:12:12;;;;;;;6.37;3.70;;;9.30;99.90;;;;;;1922343;73;21170;-87
2022/11/25 09:15:04;;;;;;;7.40;3.72;;;9.40;99.90;;;;;;1907832;74;21180;-86
2022/11/25 09:18:01;;;;;;;4.67;3.08;;;9.50;99.90;;;;;;1920374;74;21115;-86
2022/11/25 09:20:54;;;;;;;6.22;3.27;;;9.60;99.90;;;;;;1908876;74;21135;-87
2022/11/25 09:23:52;;;;;;;6.30;3.58;;;9.80;99.90;;;;;;1927080;73;21217;-86
2022/11/25 09:26:45;;;;;;;6.20;3.62;;;9.90;99.90;;;;;;1916820;74;21057;-86
2022/11/25 09:32:15;;;;;;;6.05;3.08;;;10.00;99.90;;;;;;1939687;72;22205;-88
2022/11/25 09:35:08;;;;;;;7.72;2.98;;;10.10;99.90;;;;;;1902377;75;21202;-85
2022/11/25 09:37:59;;;;;;;8.33;3.08;;;10.20;99.90;;;;;;1898117;75;21127;-86
2022/11/25 09:46:55;;;;;;;4.45;2.50;;;10.30;99.90;;;;;;1893801;75;21103;-86
2022/11/25 09:52:32;;;;;;;4.72;2.83;;;10.40;99.90;;;;;;1936133;72;22290;-88
2022/11/25 09:58:12;;;;;;;6.70;3.12;;;10.50;99.90;;;;;;1932784;72;22229;-87
2022/11/25 10:01:07;;;;;;;5.20;2.65;;;10.50;99.90;;;;;;1884216;75;21188;-86
2022/11/25 10:04:02;;;;;;;5.05;3.27;;;10.60;99.90;;;;;;1872023;75;21195;-86
2022/11/25 10:06:57;;;;;;;5.05;2.60;;;10.70;99.90;;;;;;1876802;74;21168;-86
2022/11/25 10:12:31;;;;;;;6.28;3.22;;;10.60;99.90;;;;;;1938048;72;22560;-88
2022/11/25 10:15:26;;;;;;;3.70;2.52;;;10.50;99.90;;;;;;1894949;75;21184;-86
2022/11/25 10:18:24;;;;;;;5.33;2.30;;;10.60;99.90;;;;;;1892273;75;21083;-86
2022/11/25 10:21:20;;;;;;;3.35;2.20;;;10.40;99.90;;;;;;1903312;75;21342;-86
2022/11/25 10:24:16;;;;;;;5.97;2.80;;;10.40;99.90;;;;;;1872325;74;21170;-87
2022/11/25 10:27:12;;;;;;;4.95;2.60;;;10.40;99.90;;;;;;1901802;75;21095;-86
2022/11/25 10:30:08;;;;;;;3.98;2.83;;;10.40;99.90;;;;;;1882196;75;21138;-86
2022/11/25 10:35:42;;;;;;;3.65;2.60;;;10.50;99.90;;;;;;1941646;72;22314;-87
2022/11/25 10:41:22;;;;;;;6.05;2.40;;;10.50;99.90;;;;;;1931344;72;20186;-87
2022/11/25 10:44:18;;;;;;;6.12;2.45;;;10.50;99.90;;;;;;1880420;75;21205;-86
2022/11/25 10:47:18;;;;;;;3.52;2.27;;;10.60;99.90;;;;;;1887883;75;21177;-86
2022/11/25 10:50:16;;;;;;;6.15;1.95;;;10.60;99.90;;;;;;1894284;75;21071;-86
2022/11/25 10:53:13;;;;;;;7.42;1.85;;;10.60;99.90;;;;;;1885082;75;21108;-86
2022/11/25 10:56:07;;;;;;;3.30;1.87;;;10.70;99.90;;;;;;1893559;74;21110;-86
2022/11/25 10:58:58;;;;;;;3.05;1.80;;;10.70;99.90;;;;;;1872322;75;21098;-86
2022/11/25 11:01:52;;;;;;;3.17;2.00;;;10.80;99.90;;;;;;1883804;75;21169;-86
2022/11/25 11:07:35;;;;;;;4.00;1.80;;;10.90;99.90;;;;;;1959506;72;22220;-87
2022/11/25 11:10:28;;;;;;;3.20;1.90;;;11.00;99.90;;;;;;1916655;73;21184;-85
2022/11/25 11:13:25;;;;;;;4.83;1.57;;;11.00;99.90;;;;;;1936486;73;21079;-86
2022/11/25 11:19:21;;;;;;;3.50;1.47;;;11.10;99.90;;;;;;1947427;72;22603;-87
2022/11/25 11:22:19;;;;;;;3.15;2.00;;;11.10;99.90;;;;;;1863602;76;21159;-87
2022/11/25 11:27:50;;;;;;;4.70;2.85;;;11.20;99.90;;;;;;1953929;72;22227;-86
2022/11/25 11:33:36;;;;;;;6.85;2.77;;;11.40;99.90;;;;;;1930724;72;22249;-86
2022/11/25 11:39:38;;;;;;;4.05;1.87;;;11.70;99.90;;;;;;1941614;72;22264;-86
2022/11/25 11:42:35;;;;;;;6.00;2.47;;;11.90;99.90;;;;;;1931789;73;21257;-87
2022/11/25 11:45:41;;;;;;;3.80;2.42;;;12.00;99.90;;;;;;1927717;73;21144;-85
2022/11/25 11:48:37;;;;;;;6.90;3.58;;;12.10;99.90;;;;;;1923448;73;21135;-87
2022/11/25 11:51:32;;;;;;;3.47;2.15;;;12.20;99.90;;;;;;1927473;73;21203;-86
2022/11/25 11:57:14;;;;;;;4.75;2.20;;;12.30;99.90;;;;;;1938147;72;22265;-87
2022/11/25 12:00:09;;;;;;;7.20;3.72;;;12.30;99.90;;;;;;1920022;74;21079;-86
2022/11/25 12:03:07;;;;;;;7.90;3.58;;;12.30;99.90;;;;;;1918782;74;21051;-87
2022/11/25 12:08:42;;;;;;;5.22;2.30;;;12.20;99.90;;;;;;1934472;72;22691;-87
2022/11/25 12:14:24;;;;;;;3.90;2.08;;;12.20;99.90;;;;;;1941390;72;22683;-87
2022/11/25 12:22:47;;;;;;;3.62;2.47;;;12.40;99.90;;;;;;1938313;72;22257;-86
2022/11/25 12:25:41;;;;;;;5.65;2.22;;;12.50;99.90;;;;;;1892945;74;21621;-85
2022/11/25 12:28:36;;;;;;;3.72;1.60;;;12.50;99.90;;;;;;1881557;75;21177;-85
2022/11/25 12:34:17;;;;;;;3.95;1.87;;;12.80;99.90;;;;;;1957210;72;22288;-86
2022/11/25 12:37:12;;;;;;;5.15;1.57;;;12.90;99.90;;;;;;1928435;73;21195;-86
2022/11/25 12:40:09;;;;;;;5.08;1.72;;;13.00;99.90;;;;;;1918318;73;21063;-86
2022/11/25 12:43:08;;;;;;;3.60;1.80;;;13.10;99.90;;;;;;1916618;75;21144;-86
2022/11/25 12:48:54;;;;;;;3.47;1.70;;;13.30;99.90;;;;;;1950433;72;22212;-86
2022/11/25 12:51:54;;;;;;;2.52;1.40;;;13.30;99.90;;;;;;1916801;75;21210;-86
2022/11/25 12:55:09;;;;;;;4.70;2.52;;;13.40;99.90;;;;;;1935421;73;21216;-87
2022/11/25 12:58:27;;;;;;;7.95;1.77;;;13.40;99.90;;;;;;1916984;75;21110;-86
2022/11/25 13:01:39;;;;;;;2.90;1.25;;;13.50;99.90;;;;;;1938164;73;21196;-85
2022/11/25 13:05:01;;;;;;;2.40;1.37;;;13.50;99.90;;;;;;1916972;75;21569;-86
2022/11/25 13:07:58;;;;;;;3.83;1.50;;;13.50;99.90;;;;;;1916791;75;21147;-86
2022/11/25 13:10:57;;;;;;;6.80;1.70;;;13.60;99.90;;;;;;1916991;73;21148;-85
2022/11/25 13:13:56;;;;;;;4.97;1.70;;;13.50;99.90;;;;;;1916893;75;21565;-86
2022/11/25 13:16:49;;;;;;;4.25;1.70;;;13.50;99.90;;;;;;1939698;73;21205;-85
2022/11/25 13:19:42;;;;;;;2.95;1.42;;;13.50;99.90;;;;;;1919550;73;21661;-86
2022/11/25 13:22:34;;;;;;;4.85;2.30;;;13.40;99.90;;;;;;1916409;75;21094;-85
2022/11/25 13:25:28;;;;;;;3.37;1.87;;;13.30;99.90;;;;;;1939822;73;21134;-85
2022/11/25 13:28:32;;;;;;;2.08;1.10;;;13.20;99.90;;;;;;1916706;75;21723;-85
2022/11/25 13:31:25;;;;;;;3.45;1.52;;;13.20;99.90;;;;;;1917000;75;21185;-86
2022/11/25 13:34:29;;;;;;;3.77;1.95;;;13.20;99.90;;;;;;1916784;75;21095;-86
2022/11/25 13:40:29;;;;;;;1.80;1.27;;;13.30;99.90;;;;;;1935640;72;22190;-87
2022/11/25 13:43:23;;;;;;;5.17;1.55;;;13.40;99.90;;;;;;1895059;75;21121;-86
2022/11/25 13:46:29;;;;;;;5.53;1.40;;;13.50;99.90;;;;;;1858374;77;21173;-85
2022/11/25 13:49:37;;;;;;;1.95;1.20;;;13.40;99.90;;;;;;1895018;75;21197;-85
2022/11/25 13:52:50;;;;;;;3.62;1.40;;;13.50;99.90;;;;;;1904119;75;21092;-86
2022/11/25 13:55:43;;;;;;;4.45;1.32;;;13.50;99.90;;;;;;1875806;75;21140;-85
2022/11/25 13:58:34;;;;;;;3.22;1.10;;;13.60;99.90;;;;;;1888533;75;21067;-84
2022/11/25 14:01:27;;;;;;;3.45;1.27;;;13.50;99.90;;;;;;1872335;75;21124;-85
2022/11/25 14:04:24;;;;;;;2.42;1.20;;;13.40;99.90;;;;;;1872036;76;21161;-85
2022/11/25 14:07:24;;;;;;;3.05;1.42;;;13.30;99.90;;;;;;1893521;75;21098;-85
2022/11/25 14:10:34;;;;;;;3.25;1.00;;;13.20;99.90;;;;;;1873306;75;21535;-86
2022/11/25 14:16:46;;;;;;;3.80;1.27;;;13.10;99.90;;;;;;1952654;72;22225;-86
2022/11/25 14:22:36;;;;;;;2.52;1.10;;;13.10;99.90;;;;;;1965525;72;22150;-86
2022/11/25 14:25:29;;;;;;;4.72;1.72;;;13.00;99.90;;;;;;1920869;74;21180;-86
2022/11/25 14:28:28;;;;;;;3.65;1.55;;;12.90;99.90;;;;;;1934338;74;21095;-87
2022/11/25 14:31:25;;;;;;;4.33;2.05;;;12.90;99.90;;;;;;1926606;74;21052;-85
2022/11/25 14:34:21;;;;;;;2.65;1.67;;;12.80;99.90;;;;;;1919590;74;21138;-85
2022/11/25 14:37:15;;;;;;;6.60;1.67;;;12.80;99.90;;;;;;1904037;75;21231;-87
2022/11/25 14:40:12;;;;;;;6.22;1.82;;;12.70;99.90;;;;;;1903559;75;21225;-87
2022/11/25 14:43:07;;;;;;;5.03;1.70;;;12.70;99.90;;;;;;1926343;74;21170;-87
2022/11/25 14:46:14;;;;;;;4.12;1.10;;;12.70;99.90;;;;;;1903970;75;21071;-85
2022/11/25 14:49:07;;;;;;;4.50;0.93;;;12.60;99.90;;;;;;1927222;74;21502;-86
2022/11/25 14:52:01;;;;;;;2.37;0.82;;;12.70;99.90;;;;;;1919994;74;21110;-85
2022/11/25 14:54:54;;;;;;;1.67;0.50;;;12.60;99.90;;;;;;1904321;75;21144;-86
2022/11/25 14:57:46;;;;;;;2.58;0.93;;;12.60;99.90;;;;;;1904581;75;21099;-87
2022/11/25 15:03:29;;;;;;;1.87;0.80;;;12.60;99.90;;;;;;1974713;72;22232;-87
2022/11/25 15:06:31;;;;;;;2.58;0.60;;;12.50;99.90;;;;;;1919069;74;21541;-86
2022/11/25 15:09:26;;;;;;;5.15;0.90;;;12.30;99.90;;;;;;1926538;73;21566;-86
2022/11/25 15:12:21;;;;;;;3.47;0.85;;;12.10;99.90;;;;;;1926666;74;21168;-85
2022/11/25 15:15:16;;;;;;;2.02;0.65;;;11.90;99.90;;;;;;1926518;74;21095;-86
2022/11/25 15:18:12;;;;;;;3.30;0.85;;;11.70;99.90;;;;;;1904319;74;21145;-86
2022/11/25 15:21:04;;;;;;;3.47;1.00;;;11.50;99.90;;;;;;1918749;74;21082;-86
2022/11/25 15:23:56;;;;;;;3.67;0.78;;;11.30;99.90;;;;;;1905099;74;21125;-86
2022/11/25 15:26:52;;;;;;;0.90;0.62;;;11.10;99.90;;;;;;1904761;73;21198;-85
2022/11/25 15:29:45;;;;;;;2.12;0.78;;;10.90;99.90;;;;;;1907633;73;21099;-85
2022/11/25 15:32:37;;;;;;;2.15;0.90;;;10.80;99.90;;;;;;1904498;75;21164;-87
2022/11/25 15:35:29;;;;;;;1.15;0.50;;;10.60;99.90;;;;;;1917376;74;21205;-88
2022/11/25 15:38:35;;;;;;;2.12;0.75;;;10.60;99.90;;;;;;1908414;74;21106;-88
2022/11/25 15:41:34;;;;;;;3.02;0.62;;;10.60;99.90;;;;;;1904478;75;21103;-88
2022/11/25 15:44:29;;;;;;;1.20;0.50;;;10.40;99.90;;;;;;1904757;75;21095;-88
2022/11/25 15:47:24;;;;;;;3.15;0.78;;;10.40;99.90;;;;;;1924961;74;21048;-85
2022/11/25 15:50:20;;;;;;;1.72;0.60;;;10.40;99.90;;;;;;1923885;74;21133;-87
2022/11/25 15:53:19;;;;;;;1.85;0.50;;;10.40;99.90;;;;;;1904455;75;21102;-86
2022/11/25 15:56:15;;;;;;;3.25;0.62;;;10.30;99.90;;;;;;1904479;75;21145;-87
2022/11/25 15:59:31;;;;;;;1.67;0.70;;;10.30;99.90;;;;;;1904484;75;21224;-86
2022/11/25 16:02:42;;;;;;;2.58;0.40;;;10.20;99.90;;;;;;1905326;75;21125;-86
2022/11/25 16:05:36;;;;;;;3.50;0.57;;;10.20;99.90;;;;;;1909239;74;21098;-86
2022/11/25 16:08:33;;;;;;;2.50;1.30;;;10.10;99.90;;;;;;1909609;74;21087;-86
2022/11/25 16:11:29;;;;;;;2.02;0.57;;;10.10;99.90;;;;;;1908276;74;21130;-86
2022/11/25 16:14:26;;;;;;;4.25;1.10;;;10.10;99.90;;;;;;1908036;75;21578;-86
2022/11/25 16:17:18;;;;;;;6.05;1.10;;;10.20;99.90;;;;;;1908030;75;21095;-85
2022/11/25 16:20:18;;;;;;;1.27;0.50;;;10.20;99.90;;;;;;1910662;74;21200;-86
2022/11/25 16:23:12;;;;;;;2.37;0.82;;;10.20;99.90;;;;;;1909589;74;21130;-85
2022/11/25 16:26:07;;;;;;;3.47;0.95;;;10.10;99.90;;;;;;1908500;74;21162;-85
2022/11/25 16:29:00;;;;;;;1.72;0.70;;;10.10;99.90;;;;;;1908607;75;21156;-86
2022/11/25 16:31:52;;;;;;;4.03;0.95;;;10.10;99.90;;;;;;1909038;75;21086;-86
2022/11/25 16:34:43;;;;;;;1.82;0.90;;;10.10;99.90;;;;;;1906630;74;21698;-86
2022/11/25 16:37:35;;;;;;;3.55;1.15;;;10.10;99.90;;;;;;1907014;75;21051;-86
2022/11/25 16:40:28;;;;;;;2.70;1.10;;;10.10;99.90;;;;;;1911694;73;21115;-86
2022/11/25 16:43:23;;;;;;;1.15;0.90;;;10.00;99.90;;;;;;1905641;74;21165;-86
2022/11/25 16:46:17;;;;;;;2.15;0.82;;;10.10;99.90;;;;;;1913480;74;21095;-86
2022/11/25 16:49:15;;;;;;;2.95;1.35;;;10.20;99.90;;;;;;1924622;73;21115;-86
2022/11/25 16:52:06;;;;;;;4.70;1.25;;;10.20;99.90;;;;;;1929859;74;21103;-86
2022/11/25 16:54:58;;;;;;;2.30;1.30;;;10.20;99.90;;;;;;1909947;74;21095;-85
2022/11/25 16:57:53;;;;;;;2.95;2.20;;;10.30;99.90;;;;;;1908956;75;21118;-85
2022/11/25 17:00:44;;;;;;;4.80;1.82;;;10.30;99.90;;;;;;1898842;74;21124;-85
2022/11/25 17:03:36;;;;;;;3.35;1.65;;;10.20;99.90;;;;;;1925015;74;21079;-85
2022/11/25 17:06:30;;;;;;;3.62;1.20;;;10.20;99.90;;;;;;1906808;75;21119;-85
2022/11/25 17:12:04;;;;;;;4.67;2.02;;;10.30;99.90;;;;;;1954885;72;22186;-86
2022/11/25 17:15:00;;;;;;;3.47;2.00;;;10.30;99.90;;;;;;1899743;75;21102;-86
2022/11/25 17:17:52;;;;;;;3.70;1.52;;;10.30;99.90;;;;;;1895505;75;21083;-84
2022/11/25 17:20:43;;;;;;;4.00;1.45;;;10.20;99.90;;;;;;1906942;75;21202;-86
2022/11/25 17:23:35;;;;;;;4.62;2.83;;;10.30;99.90;;;;;;1910630;75;21156;-85
2022/11/25 17:26:30;;;;;;;3.95;2.20;;;10.30;99.90;;;;;;1905673;75;21133;-85
2022/11/25 17:29:27;;;;;;;17.20;10.00;;;10.20;99.90;;;;;;1883618;76;21238;-86
2022/11/25 17:32:20;;;;;;;8.05;4.80;;;10.10;99.90;;;;;;1897356;75;21094;-86
2022/11/25 17:35:19;;;;;;;8.23;4.80;;;10.00;99.90;;;;;;1886044;75;21610;-86
2022/11/25 17:38:15;;;;;;;8.15;4.87;;;10.00;99.90;;;;;;1906333;75;21098;-86
2022/11/25 17:43:56;;;;;;;4.03;2.60;;;10.00;99.90;;;;;;1956956;72;22182;-87
2022/11/25 17:46:47;;;;;;;6.17;2.98;;;10.10;99.90;;;;;;1925596;73;21094;-86
2022/11/25 17:49:39;;;;;;;5.22;2.60;;;10.20;99.90;;;;;;1890316;75;21111;-86
2022/11/25 17:52:31;;;;;;;6.65;4.10;;;10.20;99.90;;;;;;1918983;73;21090;-85
2022/11/25 17:55:23;;;;;;;4.58;2.58;;;10.30;99.90;;;;;;1928206;73;21109;-85
2022/11/25 17:58:18;;;;;;;4.05;3.00;;;10.20;99.90;;;;;;1928997;73;21559;-86
2022/11/25 18:01:10;;;;;;;4.53;2.25;;;10.20;99.90;;;;;;1882626;76;21107;-87
2022/11/25 18:04:04;;;;;;;5.50;2.60;;;10.20;99.90;;;;;;1920138;74;21152;-87
2022/11/25 18:06:56;;;;;;;3.95;2.05;;;10.30;99.90;;;;;;1925964;73;21133;-87
2022/11/25 18:09:48;;;;;;;5.47;2.80;;;10.30;99.90;;;;;;1925830;73;21089;-86